Time;durP1;ratioP1;P1;durP2;ratioP2;P2;SDS_P1;SDS_P2;PMS_P1;PMS_P2;Temp;Humidity;BMP_temperature;BMP_pressure;BME280_temperature;BME280_humidity;BME280_pressure;Samples;Min_cycle;Max_cycle;Signal;HPM_P1;HPM_P2
2023/03/24 00:00:20;;;;;;;8.80;4.00;;;14.80;1.00;;;;;;5029501;28;20432;-71
2023/03/24 00:02:47;;;;;;;4.53;4.03;;;14.80;1.00;;;;;;5031287;28;20255;-76
2023/03/24 00:05:15;;;;;;;4.50;3.97;;;14.80;1.00;;;;;;5030150;28;20509;-73
2023/03/24 00:07:41;;;;;;;6.93;3.80;;;14.80;1.00;;;;;;5030947;28;20531;-73
2023/03/24 00:10:10;;;;;;;7.37;4.47;;;14.80;1.00;;;;;;5032401;28;20523;-73
2023/03/24 00:12:37;;;;;;;4.33;3.90;;;14.80;1.00;;;;;;5029746;28;20304;-73
2023/03/24 00:15:07;;;;;;;5.40;4.10;;;14.70;1.00;;;;;;5042256;28;21004;-75
2023/03/24 00:17:34;;;;;;;4.60;3.93;;;14.70;1.00;;;;;;5035445;28;20443;-74
2023/03/24 00:20:12;;;;;;;4.37;3.97;;;14.70;1.00;;;;;;5036551;28;20868;-75
2023/03/24 00:22:41;;;;;;;4.53;3.50;;;14.60;1.00;;;;;;5040228;28;20428;-73
2023/03/24 00:25:10;;;;;;;7.43;3.90;;;14.60;1.00;;;;;;5037054;28;20474;-73
2023/03/24 00:27:37;;;;;;;9.30;6.50;;;14.50;1.00;;;;;;5035621;28;20496;-73
2023/03/24 00:30:08;;;;;;;14.50;9.03;;;14.50;1.00;;;;;;5041243;28;20439;-73
2023/03/24 00:32:37;;;;;;;11.70;7.80;;;14.50;1.00;;;;;;5039639;28;20468;-73
2023/03/24 00:35:04;;;;;;;11.70;7.27;;;14.50;1.00;;;;;;5030628;28;20861;-73
2023/03/24 00:37:30;;;;;;;8.80;6.00;;;14.40;1.00;;;;;;5030557;28;20448;-73
2023/03/24 00:39:56;;;;;;;14.43;9.50;;;14.40;1.00;;;;;;5029400;28;20818;-73
2023/03/24 00:42:23;;;;;;;46.03;25.83;;;14.40;1.00;;;;;;5039734;28;20197;-73
2023/03/24 00:44:49;;;;;;;34.23;20.50;;;14.30;1.00;;;;;;5038193;28;20189;-73
2023/03/24 00:47:16;;;;;;;17.20;12.10;;;14.40;1.00;;;;;;5034190;28;20451;-75
2023/03/24 00:49:43;;;;;;;14.30;8.80;;;14.40;1.00;;;;;;5029830;28;20209;-73
2023/03/24 00:52:16;;;;;;;10.33;8.27;;;14.40;1.00;;;;;;5031476;28;20460;-74
2023/03/24 00:54:44;;;;;;;10.70;7.80;;;14.50;1.00;;;;;;5026870;28;20468;-73
2023/03/24 00:57:11;;;;;;;8.40;6.60;;;14.50;1.00;;;;;;5030801;28;20427;-73
2023/03/24 00:59:41;;;;;;;9.20;7.20;;;14.40;1.00;;;;;;5033974;28;20468;-75
2023/03/24 01:02:10;;;;;;;6.33;4.70;;;14.50;1.00;;;;;;5039237;28;20919;-73
2023/03/24 01:04:37;;;;;;;5.00;3.83;;;14.60;1.00;;;;;;5023213;28;20490;-72
2023/03/24 01:07:02;;;;;;;10.90;6.47;;;14.50;1.00;;;;;;5030589;28;20432;-74
2023/03/24 01:09:28;;;;;;;11.83;8.73;;;15.10;1.00;;;;;;5083296;22;20858;-70
2023/03/24 01:11:54;;;;;;;13.27;9.70;;;14.80;1.00;;;;;;5027891;28;20676;-71
2023/03/24 01:14:20;;;;;;;12.27;8.13;;;14.90;1.00;;;;;;5026399;28;20595;-70
2023/03/24 01:16:45;;;;;;;6.40;4.50;;;14.90;1.00;;;;;;5030671;28;20435;-71
2023/03/24 01:19:11;;;;;;;8.60;4.57;;;17.00;1.00;;;;;;5018665;28;20724;-68
2023/03/24 01:21:37;;;;;;;20.73;12.30;;;15.10;1.00;;;;;;5010917;28;20225;-71
2023/03/24 01:24:04;;;;;;;17.53;11.30;;;15.10;1.00;;;;;;5009154;28;20198;-70
2023/03/24 01:26:30;;;;;;;18.93;11.13;;;16.10;1.00;;;;;;5019600;28;20456;-71
2023/03/24 01:28:56;;;;;;;24.43;13.50;;;15.10;1.00;;;;;;5009522;28;21005;-71
2023/03/24 01:31:22;;;;;;;16.80;10.40;;;15.20;1.00;;;;;;5018722;28;20203;-70
2023/03/24 01:33:47;;;;;;;27.17;14.43;;;15.20;1.00;;;;;;5024190;28;20440;-70
2023/03/24 01:36:13;;;;;;;21.10;11.30;;;15.10;1.00;;;;;;5015954;28;20179;-70
2023/03/24 01:38:38;;;;;;;20.03;11.70;;;15.20;1.00;;;;;;5017610;28;20812;-71
2023/03/24 01:41:05;;;;;;;14.33;8.90;;;15.10;1.00;;;;;;5014128;28;20696;-70
2023/03/24 01:43:33;;;;;;;20.03;11.30;;;15.10;1.00;;;;;;5021633;28;20707;-70
2023/03/24 01:46:06;;;;;;;16.67;7.90;;;15.20;1.00;;;;;;5024941;28;20459;-70
2023/03/24 01:49:03;;;;;;;11.23;6.40;;;15.20;1.00;;;;;;5016846;28;20457;-71
2023/03/24 01:51:34;;;;;;;7.53;4.40;;;15.20;1.00;;;;;;5008986;28;20475;-70
2023/03/24 01:54:10;;;;;;;15.83;7.67;;;15.30;1.00;;;;;;5009557;28;20524;-70
2023/03/24 01:56:41;;;;;;;16.03;7.73;;;15.30;1.00;;;;;;5000673;28;20429;-71
2023/03/24 01:59:10;;;;;;;3.90;2.73;;;15.40;1.00;;;;;;5009555;28;20452;-70
2023/03/24 02:01:36;;;;;;;4.70;2.90;;;15.40;1.00;;;;;;5017225;28;20951;-70
2023/03/24 02:04:04;;;;;;;5.60;3.03;;;15.50;1.00;;;;;;5007588;28;20433;-70
2023/03/24 02:06:33;;;;;;;12.40;8.23;;;15.50;1.00;;;;;;5009166;28;20772;-70
2023/03/24 02:09:03;;;;;;;15.93;8.60;;;15.60;1.00;;;;;;5009336;28;20499;-71
2023/03/24 02:11:31;;;;;;;7.37;4.70;;;15.60;1.00;;;;;;5007197;28;20492;-70
2023/03/24 02:13:57;;;;;;;3.43;2.70;;;15.60;1.00;;;;;;5015739;28;20459;-70
2023/03/24 02:17:00;;;;;;;4.63;3.47;;;15.70;1.00;;;;;;5016107;28;20651;-70
2023/03/24 02:19:47;;;;;;;6.63;4.13;;;15.70;1.00;;;;;;5016996;28;20201;-71
2023/03/24 02:22:45;;;;;;;7.83;5.13;;;15.70;1.00;;;;;;5010023;28;20429;-70
2023/03/24 02:25:41;;;;;;;17.63;8.47;;;15.70;1.00;;;;;;5018058;28;20788;-70
2023/03/24 02:28:15;;;;;;;7.43;4.10;;;15.70;1.00;;;;;;5012919;28;20525;-70
2023/03/24 02:30:52;;;;;;;6.83;3.10;;;15.70;1.00;;;;;;5010816;28;20441;-71
2023/03/24 02:33:36;;;;;;;7.60;4.90;;;15.70;1.00;;;;;;5008378;28;20773;-71
2023/03/24 02:36:47;;;;;;;3.97;2.90;;;15.70;1.00;;;;;;5005621;28;20524;-70
2023/03/24 02:39:31;;;;;;;4.47;3.20;;;15.70;1.00;;;;;;5009657;28;20461;-68
2023/03/24 02:42:10;;;;;;;8.57;6.23;;;15.70;1.00;;;;;;5007232;28;20445;-70
2023/03/24 02:45:07;;;;;;;13.20;7.67;;;15.70;1.00;;;;;;5015230;28;20935;-70
2023/03/24 02:47:55;;;;;;;8.20;5.53;;;15.70;1.00;;;;;;5016814;28;20421;-70
2023/03/24 02:50:44;;;;;;;12.97;7.60;;;15.70;1.00;;;;;;5008122;28;20449;-70
2023/03/24 02:53:21;;;;;;;6.00;4.00;;;15.70;1.00;;;;;;5009647;28;20426;-70
2023/03/24 02:56:00;;;;;;;6.20;3.87;;;15.60;1.00;;;;;;5006064;28;20851;-70
2023/03/24 02:58:35;;;;;;;5.70;4.20;;;15.70;1.00;;;;;;5007302;28;21065;-70
2023/03/24 03:01:10;;;;;;;6.37;4.60;;;15.30;1.00;;;;;;5006870;28;20530;-71
2023/03/24 03:03:41;;;;;;;5.73;3.73;;;15.70;1.00;;;;;;5019360;28;20427;-70
2023/03/24 03:06:22;;;;;;;3.10;2.77;;;15.70;1.00;;;;;;5006880;28;20456;-70
2023/03/24 03:08:49;;;;;;;4.17;2.90;;;15.70;1.00;;;;;;5008672;28;20460;-71
2023/03/24 03:11:16;;;;;;;3.00;2.67;;;15.70;1.00;;;;;;5008073;28;20487;-70
2023/03/24 03:13:52;;;;;;;5.03;3.40;;;15.70;1.00;;;;;;5011421;28;20848;-70
2023/03/24 03:16:45;;;;;;;3.47;3.10;;;15.70;1.00;;;;;;5014201;28;20775;-70
2023/03/24 03:19:30;;;;;;;4.03;2.90;;;15.70;1.00;;;;;;5005542;28;21069;-70
2023/03/24 03:21:57;;;;;;;3.10;2.80;;;15.80;1.00;;;;;;5003103;28;20422;-70
2023/03/24 03:24:33;;;;;;;10.37;4.87;;;15.80;1.00;;;;;;5007887;28;20847;-71
2023/03/24 03:27:07;;;;;;;18.40;9.90;;;15.80;1.00;;;;;;5007799;28;20433;-71
2023/03/24 03:29:38;;;;;;;23.03;12.70;;;15.80;1.00;;;;;;5006656;28;20456;-69
2023/03/24 03:32:08;;;;;;;4.07;3.10;;;15.80;1.00;;;;;;5008846;28;20561;-70
2023/03/24 03:35:07;;;;;;;3.37;2.87;;;15.80;1.00;;;;;;5015237;28;20444;-70
2023/03/24 03:37:42;;;;;;;5.40;2.80;;;15.90;1.00;;;;;;5006260;28;20445;-69
2023/03/24 03:40:13;;;;;;;3.07;2.77;;;16.90;1.00;;;;;;5015681;28;20590;-71
2023/03/24 03:42:39;;;;;;;6.67;3.30;;;16.00;1.00;;;;;;5015041;28;20991;-70
2023/03/24 03:45:08;;;;;;;3.50;2.93;;;16.00;1.00;;;;;;5023575;28;20835;-71
2023/03/24 03:47:34;;;;;;;4.40;3.07;;;15.90;1.00;;;;;;5006740;28;20437;-71
2023/03/24 03:50:00;;;;;;;3.70;3.30;;;16.00;1.00;;;;;;5009619;28;20450;-73
2023/03/24 03:52:26;;;;;;;2.97;2.67;;;16.00;1.00;;;;;;5009811;28;20468;-72
2023/03/24 03:54:53;;;;;;;3.30;2.97;;;16.00;1.00;;;;;;5007817;28;20441;-73
2023/03/24 03:57:19;;;;;;;3.53;3.10;;;16.00;1.00;;;;;;5016701;28;20265;-73
2023/03/24 03:59:45;;;;;;;8.20;3.00;;;16.00;1.00;;;;;;5011755;28;20456;-72
2023/03/24 04:02:41;;;;;;;3.70;2.90;;;15.90;1.00;;;;;;5010677;28;20502;-72
2023/03/24 04:05:24;;;;;;;4.43;3.30;;;15.90;1.00;;;;;;5012504;28;20201;-71
2023/03/24 04:08:12;;;;;;;4.20;3.27;;;15.90;1.00;;;;;;5016818;28;20984;-72
2023/03/24 04:10:52;;;;;;;5.30;4.20;;;15.90;1.00;;;;;;5015671;28;20457;-73
2023/03/24 04:13:30;;;;;;;5.87;3.60;;;15.90;1.00;;;;;;5003020;28;20438;-72
2023/03/24 04:16:08;;;;;;;3.70;2.93;;;15.90;1.00;;;;;;5022505;28;20881;-72
2023/03/24 04:18:48;;;;;;;4.80;3.03;;;16.00;1.00;;;;;;5006650;28;20539;-72
2023/03/24 04:21:54;;;;;;;3.93;3.50;;;16.00;1.00;;;;;;5007029;28;20433;-73
2023/03/24 04:24:38;;;;;;;4.27;3.13;;;16.00;1.00;;;;;;5019801;28;20467;-73
2023/03/24 04:27:37;;;;;;;4.40;3.43;;;16.00;1.00;;;;;;5007657;28;20433;-72
2023/03/24 04:30:29;;;;;;;5.10;3.90;;;15.90;1.00;;;;;;5011449;28;20457;-73
2023/03/24 04:32:57;;;;;;;4.67;3.70;;;15.70;1.00;;;;;;5005201;28;20471;-73
2023/03/24 04:35:51;;;;;;;5.23;3.50;;;15.50;1.00;;;;;;5009197;28;20430;-72
2023/03/24 04:38:24;;;;;;;5.37;3.87;;;15.00;1.00;;;;;;5008846;28;20662;-69
2023/03/24 04:40:54;;;;;;;6.73;4.60;;;14.90;1.00;;;;;;5012996;28;20614;-70
2023/03/24 04:43:23;;;;;;;6.67;4.00;;;14.50;1.00;;;;;;5011688;28;20417;-72
2023/03/24 04:45:50;;;;;;;5.17;4.00;;;14.40;1.00;;;;;;5024523;28;20795;-72
2023/03/24 04:48:18;;;;;;;4.57;3.60;;;14.40;1.00;;;;;;5009346;28;20480;-70
2023/03/24 04:50:53;;;;;;;5.93;4.53;;;14.40;1.00;;;;;;5023552;28;20438;-72
2023/03/24 04:53:18;;;;;;;6.80;4.10;;;14.40;1.00;;;;;;5025924;28;20745;-72
2023/03/24 04:55:58;;;;;;;7.30;4.20;;;14.40;1.00;;;;;;5010205;28;20429;-72
2023/03/24 04:58:24;;;;;;;7.27;4.83;;;14.40;1.00;;;;;;5008200;28;20194;-72
2023/03/24 05:00:50;;;;;;;5.43;4.00;;;14.50;1.00;;;;;;5011151;28;20485;-72
2023/03/24 05:03:18;;;;;;;6.73;4.80;;;14.40;1.00;;;;;;5016781;28;20444;-72
2023/03/24 05:05:47;;;;;;;5.90;4.40;;;14.40;1.00;;;;;;5007357;28;20198;-72
2023/03/24 05:08:13;;;;;;;4.77;3.90;;;14.40;1.00;;;;;;5008918;28;20518;-72
2023/03/24 05:10:38;;;;;;;6.00;4.00;;;14.40;1.00;;;;;;5009992;28;20516;-72
2023/03/24 05:13:05;;;;;;;5.43;3.80;;;14.40;1.00;;;;;;5012748;28;20696;-73
2023/03/24 05:15:31;;;;;;;4.20;3.77;;;14.40;1.00;;;;;;5023964;28;20763;-72
2023/03/24 05:17:57;;;;;;;5.00;4.00;;;14.20;1.00;;;;;;5016179;28;20520;-71
2023/03/24 05:20:23;;;;;;;4.80;4.30;;;14.20;1.00;;;;;;5008928;28;20273;-70
2023/03/24 05:22:49;;;;;;;6.93;4.53;;;14.00;1.00;;;;;;5011348;28;20273;-70
2023/03/24 05:25:15;;;;;;;5.50;4.50;;;13.80;1.00;;;;;;5018047;28;20269;-71
2023/03/24 05:27:41;;;;;;;6.37;4.77;;;13.70;1.00;;;;;;5008879;28;20191;-70
2023/03/24 05:30:07;;;;;;;7.40;5.47;;;13.50;1.00;;;;;;5006881;28;20808;-70
2023/03/24 05:32:33;;;;;;;6.37;5.27;;;13.50;1.00;;;;;;5008128;28;20508;-70
2023/03/24 05:34:59;;;;;;;6.70;5.40;;;13.40;1.00;;;;;;5008799;28;20437;-70
2023/03/24 05:37:26;;;;;;;7.30;5.90;;;13.30;1.00;;;;;;5009082;28;20846;-70
2023/03/24 05:39:52;;;;;;;7.57;6.20;;;13.20;1.00;;;;;;5017703;28;20700;-70
2023/03/24 05:42:17;;;;;;;10.23;6.60;;;13.20;1.00;;;;;;5013065;28;20437;-70
2023/03/24 05:44:44;;;;;;;7.40;6.43;;;13.20;1.80;;;;;;5021232;28;20607;-70
2023/03/24 05:47:11;;;;;;;11.47;5.87;;;13.20;1.00;;;;;;5018896;28;20572;-70
2023/03/24 05:49:37;;;;;;;8.97;6.30;;;13.20;1.00;;;;;;5008937;28;20472;-70
2023/03/24 05:52:03;;;;;;;8.93;6.60;;;13.20;6.70;;;;;;5008497;28;20457;-70
2023/03/24 05:54:29;;;;;;;9.00;6.90;;;13.20;9.50;;;;;;5009276;28;20422;-73
2023/03/24 05:56:54;;;;;;;8.70;6.90;;;13.20;14.30;;;;;;5008787;28;20175;-70
2023/03/24 05:59:21;;;;;;;8.80;7.07;;;13.20;12.90;;;;;;5009204;28;20199;-71
2023/03/24 06:01:47;;;;;;;10.97;7.17;;;13.20;17.70;;;;;;5017525;28;20240;-71
2023/03/24 06:04:12;;;;;;;11.63;7.20;;;13.30;17.40;;;;;;5007029;28;20823;-70
2023/03/24 06:06:39;;;;;;;12.20;7.90;;;13.20;17.20;;;;;;5007794;28;20325;-71
2023/03/24 06:09:05;;;;;;;11.47;8.10;;;13.20;18.60;;;;;;5009747;28;20589;-69
2023/03/24 06:11:31;;;;;;;9.70;7.27;;;13.20;20.30;;;;;;5008712;28;20480;-70
2023/03/24 06:13:59;;;;;;;10.20;7.70;;;13.20;20.90;;;;;;5014812;28;20273;-71
2023/03/24 06:16:28;;;;;;;11.70;7.60;;;13.30;22.70;;;;;;5015963;28;20178;-70
2023/03/24 06:18:53;;;;;;;9.63;7.43;;;13.30;19.20;;;;;;5008247;28;20461;-70
2023/03/24 06:21:20;;;;;;;10.63;8.37;;;13.30;21.30;;;;;;5008386;28;20800;-71
2023/03/24 06:23:46;;;;;;;11.17;7.50;;;13.40;19.80;;;;;;5009705;28;20191;-71
2023/03/24 06:26:13;;;;;;;11.03;7.77;;;13.40;17.20;;;;;;5006731;28;20433;-70
2023/03/24 06:28:40;;;;;;;11.60;7.10;;;13.50;20.10;;;;;;5007380;28;20241;-70
2023/03/24 06:31:13;;;;;;;12.23;7.80;;;13.60;17.40;;;;;;5015044;28;20997;-70
2023/03/24 06:33:39;;;;;;;13.40;7.87;;;13.60;15.60;;;;;;5008526;28;20864;-70
2023/03/24 06:36:05;;;;;;;13.23;7.43;;;13.60;16.70;;;;;;5014238;28;20437;-70
2023/03/24 06:38:31;;;;;;;10.33;7.70;;;13.60;16.60;;;;;;5008881;28;20199;-70
2023/03/24 06:41:04;;;;;;;9.33;7.50;;;13.70;18.40;;;;;;5013056;28;20448;-71
2023/03/24 06:43:30;;;;;;;10.00;7.57;;;13.70;15.50;;;;;;5010216;28;20198;-70
2023/03/24 06:45:56;;;;;;;10.60;8.53;;;13.70;15.60;;;;;;5014918;28;20469;-70
2023/03/24 06:48:22;;;;;;;13.33;8.10;;;13.70;16.10;;;;;;5007696;28;20942;-71
2023/03/24 06:50:47;;;;;;;10.97;8.33;;;13.80;16.60;;;;;;5008587;28;20186;-70
2023/03/24 06:53:13;;;;;;;8.37;6.70;;;13.80;15.20;;;;;;5009745;28;20425;-71
2023/03/24 06:55:39;;;;;;;16.30;7.37;;;13.90;12.10;;;;;;5007698;28;20193;-71
2023/03/24 06:58:05;;;;;;;10.43;8.10;;;13.90;10.20;;;;;;5007750;28;20182;-71
2023/03/24 07:00:30;;;;;;;11.47;7.40;;;13.90;11.70;;;;;;5007643;28;20437;-70
2023/03/24 07:02:56;;;;;;;9.90;7.10;;;14.00;7.90;;;;;;5007380;28;20262;-71
2023/03/24 07:05:22;;;;;;;15.17;7.93;;;13.90;7.80;;;;;;5007209;28;20281;-70
2023/03/24 07:07:48;;;;;;;10.77;7.03;;;14.00;9.20;;;;;;5014949;28;20557;-70
2023/03/24 07:10:14;;;;;;;8.73;6.83;;;14.00;4.40;;;;;;5017505;28;20464;-71
2023/03/24 07:12:40;;;;;;;8.50;6.40;;;14.10;7.30;;;;;;5016877;28;20465;-72
2023/03/24 07:15:07;;;;;;;9.93;7.43;;;14.10;5.40;;;;;;5017812;28;20178;-72
2023/03/24 07:17:33;;;;;;;8.27;6.50;;;14.00;7.00;;;;;;5019392;28;20182;-72
2023/03/24 07:19:58;;;;;;;10.13;6.60;;;14.10;8.10;;;;;;5007253;28;20588;-72
2023/03/24 07:22:24;;;;;;;10.30;7.00;;;14.10;6.80;;;;;;5008902;28;20540;-72
2023/03/24 07:24:50;;;;;;;9.80;7.23;;;14.10;8.40;;;;;;5006286;28;20190;-74
2023/03/24 07:27:15;;;;;;;9.47;6.80;;;14.20;6.90;;;;;;5007584;28;20256;-72
2023/03/24 07:29:41;;;;;;;9.53;6.67;;;14.20;4.50;;;;;;5006792;28;20696;-72
2023/03/24 07:32:06;;;;;;;8.93;7.20;;;14.20;7.10;;;;;;5007940;28;20256;-72
2023/03/24 07:34:33;;;;;;;11.93;6.80;;;14.20;8.10;;;;;;5007014;28;20170;-72
2023/03/24 07:36:59;;;;;;;10.33;6.50;;;14.30;6.70;;;;;;5007125;28;20279;-71
2023/03/24 07:39:25;;;;;;;6.67;5.73;;;14.30;4.40;;;;;;5005602;28;20983;-71
2023/03/24 07:41:50;;;;;;;8.00;6.10;;;14.30;2.80;;;;;;5016645;28;20433;-72
2023/03/24 07:44:16;;;;;;;12.30;6.13;;;14.30;1.70;;;;;;5006973;28;20657;-72
2023/03/24 07:46:41;;;;;;;8.20;6.20;;;14.40;1.80;;;;;;5007826;28;20194;-72
2023/03/24 07:49:07;;;;;;;8.47;5.97;;;14.50;1.00;;;;;;4977754;28;20786;-72
2023/03/24 07:51:33;;;;;;;6.60;5.93;;;14.60;1.00;;;;;;4984440;28;21550;-72
2023/03/24 07:53:58;;;;;;;8.27;4.97;;;14.70;1.00;;;;;;5004649;28;20174;-72
2023/03/24 07:56:24;;;;;;;7.43;5.20;;;14.70;1.00;;;;;;5000959;28;20677;-72
2023/03/24 07:58:50;;;;;;;7.73;5.13;;;14.70;1.00;;;;;;5007626;28;20737;-69
2023/03/24 08:01:16;;;;;;;5.53;4.70;;;14.60;1.00;;;;;;5007232;28;20429;-73
2023/03/24 08:03:41;;;;;;;9.00;4.83;;;14.60;1.00;;;;;;5010236;28;20213;-72
2023/03/24 08:06:08;;;;;;;5.50;4.50;;;14.60;1.00;;;;;;5005177;28;20194;-72
2023/03/24 08:08:35;;;;;;;8.60;4.50;;;14.60;1.00;;;;;;5018282;28;20202;-72
2023/03/24 08:11:01;;;;;;;6.23;4.20;;;14.50;1.00;;;;;;5010577;28;20529;-73
2023/03/24 08:13:27;;;;;;;8.40;4.40;;;14.40;1.00;;;;;;5011193;28;20437;-72
2023/03/24 08:15:52;;;;;;;5.77;4.50;;;14.50;1.00;;;;;;5021483;28;20838;-70
2023/03/24 08:18:23;;;;;;;4.53;4.13;;;14.50;1.00;;;;;;5016398;28;20206;-73
2023/03/24 08:20:50;;;;;;;4.60;4.10;;;14.50;1.00;;;;;;5012993;28;20252;-72
2023/03/24 08:23:16;;;;;;;4.70;4.30;;;14.50;1.00;;;;;;5016937;28;20999;-73
2023/03/24 08:25:42;;;;;;;5.67;3.73;;;14.40;1.00;;;;;;5013116;28;20472;-73
2023/03/24 08:28:08;;;;;;;6.03;4.13;;;14.40;1.00;;;;;;5018682;28;20432;-72
2023/03/24 08:30:34;;;;;;;4.03;3.50;;;14.40;1.00;;;;;;5023039;28;20182;-73
2023/03/24 08:33:01;;;;;;;4.57;4.00;;;14.40;1.00;;;;;;5014619;28;20202;-72
2023/03/24 08:35:33;;;;;;;5.60;3.87;;;14.40;1.00;;;;;;5021242;28;20425;-72
2023/03/24 08:38:00;;;;;;;3.67;3.30;;;14.50;1.00;;;;;;5012517;28;20433;-71
2023/03/24 08:40:27;;;;;;;4.33;3.73;;;14.50;1.00;;;;;;5013837;28;21021;-72
2023/03/24 08:42:58;;;;;;;5.77;4.37;;;14.60;1.00;;;;;;5011440;28;20448;-73
2023/03/24 08:45:27;;;;;;;6.73;3.93;;;14.60;1.00;;;;;;5013124;28;20529;-72
2023/03/24 08:47:54;;;;;;;4.40;3.83;;;14.70;1.00;;;;;;5012307;28;20432;-72
2023/03/24 08:50:22;;;;;;;5.80;3.70;;;14.70;1.00;;;;;;5013142;28;20428;-72
2023/03/24 08:52:48;;;;;;;6.07;3.93;;;14.70;1.00;;;;;;5011103;28;20503;-73
2023/03/24 08:55:16;;;;;;;5.40;3.83;;;14.80;1.00;;;;;;5010634;28;20429;-73
2023/03/24 08:57:42;;;;;;;4.23;3.70;;;14.90;1.00;;;;;;5008241;28;20441;-72
2023/03/24 09:00:12;;;;;;;4.00;3.60;;;14.80;1.00;;;;;;5015725;28;20586;-72
2023/03/24 09:02:38;;;;;;;4.33;3.40;;;14.90;1.00;;;;;;5009576;28;20182;-72
2023/03/24 09:05:03;;;;;;;4.40;3.40;;;15.10;1.00;;;;;;5010042;28;20967;-72
2023/03/24 09:07:29;;;;;;;4.97;3.90;;;15.10;1.00;;;;;;5007556;28;20187;-72
2023/03/24 09:09:55;;;;;;;3.73;3.20;;;15.20;1.00;;;;;;5010018;28;20210;-72
2023/03/24 09:12:20;;;;;;;4.67;3.80;;;15.20;1.00;;;;;;5009840;28;20217;-72
2023/03/24 09:14:49;;;;;;;5.77;3.80;;;15.20;1.00;;;;;;5002419;28;20597;-73
2023/03/24 09:17:16;;;;;;;3.47;3.17;;;15.20;1.00;;;;;;5008822;28;20183;-72
2023/03/24 09:19:42;;;;;;;4.03;3.27;;;15.10;1.00;;;;;;5018991;28;20999;-71
2023/03/24 09:22:08;;;;;;;5.27;3.20;;;15.20;1.00;;;;;;5012808;28;20444;-71
2023/03/24 09:24:33;;;;;;;5.60;3.47;;;15.20;1.00;;;;;;5002952;28;20433;-68
2023/03/24 09:26:59;;;;;;;3.60;3.30;;;15.30;1.00;;;;;;5020430;28;20747;-67
2023/03/24 09:29:24;;;;;;;4.17;3.20;;;15.30;1.00;;;;;;5008958;28;20213;-71
2023/03/24 09:31:52;;;;;;;3.80;3.27;;;15.20;1.00;;;;;;5008435;28;20214;-72
2023/03/24 09:34:18;;;;;;;3.40;3.10;;;15.30;1.00;;;;;;5009076;28;20275;-72
2023/03/24 09:36:43;;;;;;;4.10;3.10;;;15.40;1.00;;;;;;5007513;28;20865;-71
2023/03/24 09:39:09;;;;;;;3.33;3.03;;;15.40;1.00;;;;;;5011095;28;20458;-71
2023/03/24 09:41:35;;;;;;;3.77;3.10;;;15.30;1.00;;;;;;5009343;28;20233;-71
2023/03/24 09:44:19;;;;;;;3.03;2.73;;;15.30;1.00;;;;;;5012168;28;20744;-71
2023/03/24 09:46:49;;;;;;;3.83;3.20;;;15.10;1.00;;;;;;5018663;28;20437;-71
2023/03/24 09:49:23;;;;;;;4.57;3.20;;;15.00;1.00;;;;;;5012036;28;20975;-71
2023/03/24 09:51:53;;;;;;;4.80;3.20;;;14.70;1.00;;;;;;5009343;28;20975;-71
2023/03/24 09:54:52;;;;;;;4.93;3.40;;;14.90;1.00;;;;;;5023954;28;21086;-71
2023/03/24 09:57:41;;;;;;;4.90;3.20;;;15.10;1.00;;;;;;5009587;28;20437;-71
2023/03/24 10:00:18;;;;;;;4.60;2.90;;;15.20;1.00;;;;;;5004148;28;20609;-71
2023/03/24 10:02:44;;;;;;;4.23;2.47;;;15.20;1.00;;;;;;5009742;28;20428;-71
2023/03/24 10:05:28;;;;;;;3.10;2.40;;;15.10;1.00;;;;;;5010146;28;20429;-72
2023/03/24 10:08:04;;;;;;;6.60;2.60;;;14.70;1.00;;;;;;5006642;28;20535;-72
2023/03/24 10:10:41;;;;;;;4.73;2.70;;;14.70;1.00;;;;;;5009757;28;20528;-71
2023/03/24 10:13:20;;;;;;;2.90;2.60;;;14.70;1.00;;;;;;5013693;28;20473;-72
2023/03/24 10:16:08;;;;;;;3.50;2.83;;;14.60;1.00;;;;;;5014449;28;20942;-71
2023/03/24 10:18:41;;;;;;;6.97;3.40;;;14.70;1.00;;;;;;5007205;28;20484;-71
2023/03/24 10:21:18;;;;;;;4.20;3.30;;;14.70;1.00;;;;;;5007479;28;20441;-71
2023/03/24 10:24:02;;;;;;;4.50;3.53;;;14.70;1.00;;;;;;5009815;28;20540;-71
2023/03/24 10:26:45;;;;;;;4.87;3.40;;;14.80;1.00;;;;;;5006386;28;20477;-71
2023/03/24 10:29:27;;;;;;;4.33;3.43;;;14.60;1.00;;;;;;5009350;28;20449;-71
2023/03/24 10:32:00;;;;;;;4.33;3.77;;;14.80;1.00;;;;;;5006204;28;20457;-71
2023/03/24 10:34:29;;;;;;;4.60;3.70;;;14.90;1.00;;;;;;5017630;28;20441;-71
2023/03/24 10:36:57;;;;;;;3.67;3.33;;;14.90;1.00;;;;;;5007448;28;20445;-71
2023/03/24 10:39:22;;;;;;;4.60;3.50;;;14.90;1.00;;;;;;5007827;28;20942;-71
2023/03/24 10:41:49;;;;;;;4.60;3.57;;;14.80;1.00;;;;;;5019758;28;20464;-71
2023/03/24 10:44:15;;;;;;;4.53;3.50;;;14.90;1.00;;;;;;5008151;28;20198;-71
2023/03/24 10:46:51;;;;;;;4.07;3.67;;;14.90;1.00;;;;;;5008804;28;20528;-71
2023/03/24 10:49:19;;;;;;;3.90;3.47;;;14.90;1.00;;;;;;5007573;28;20516;-71
2023/03/24 10:52:02;;;;;;;6.30;3.67;;;14.80;1.00;;;;;;5011103;28;20471;-71
2023/03/24 10:54:29;;;;;;;3.60;3.30;;;14.60;1.00;;;;;;5010466;28;20455;-73
2023/03/24 10:56:59;;;;;;;8.10;4.40;;;14.40;1.00;;;;;;5007902;28;20916;-71
2023/03/24 10:59:26;;;;;;;7.20;4.20;;;14.40;1.00;;;;;;5009246;28;20500;-71
2023/03/24 11:02:04;;;;;;;4.60;3.77;;;14.70;1.00;;;;;;5008260;28;20440;-71
2023/03/24 11:04:30;;;;;;;4.00;3.50;;;14.90;1.00;;;;;;5007159;28;20447;-71
2023/03/24 11:07:04;;;;;;;4.30;3.90;;;15.20;1.00;;;;;;5008358;28;20708;-72
2023/03/24 11:09:38;;;;;;;4.73;3.77;;;15.30;1.00;;;;;;5008175;28;20284;-72
2023/03/24 11:12:04;;;;;;;4.10;3.33;;;15.20;1.00;;;;;;5027753;28;20511;-72
2023/03/24 11:14:30;;;;;;;7.53;3.70;;;14.90;1.00;;;;;;5008417;28;20906;-72
2023/03/24 11:17:11;;;;;;;5.07;3.90;;;14.80;1.00;;;;;;5009842;28;20305;-72
2023/03/24 11:19:37;;;;;;;4.07;3.67;;;14.80;1.00;;;;;;5019115;28;20448;-70
2023/03/24 11:22:06;;;;;;;5.50;3.60;;;14.90;1.00;;;;;;5009031;28;20433;-73
2023/03/24 11:24:36;;;;;;;3.70;3.40;;;16.70;1.00;;;;;;5008567;28;20568;-72
2023/03/24 11:27:02;;;;;;;3.77;3.47;;;15.10;1.00;;;;;;5013821;28;20447;-72
2023/03/24 11:29:31;;;;;;;8.20;3.43;;;15.20;1.00;;;;;;5020527;28;20468;-72
2023/03/24 11:32:02;;;;;;;3.90;3.27;;;15.30;1.00;;;;;;5007701;28;20591;-71
2023/03/24 11:34:37;;;;;;;3.07;2.77;;;15.20;1.00;;;;;;5013927;28;20431;-72
2023/03/24 11:37:13;;;;;;;3.57;3.00;;;14.90;1.00;;;;;;5016400;28;20456;-72
2023/03/24 11:39:38;;;;;;;2.70;2.20;;;14.80;1.00;;;;;;5015081;28;20973;-72
2023/03/24 11:42:04;;;;;;;3.50;2.10;;;14.70;1.00;;;;;;5010590;28;20442;-73
2023/03/24 11:44:50;;;;;;;3.00;1.90;;;14.30;1.00;;;;;;5015836;28;20186;-72
2023/03/24 11:47:23;;;;;;;3.10;1.90;;;13.90;1.00;;;;;;5011310;28;20189;-71
2023/03/24 11:50:10;;;;;;;3.93;2.23;;;13.80;1.00;;;;;;5015783;28;20460;-70
2023/03/24 11:52:54;;;;;;;3.40;1.50;;;13.90;3.10;;;;;;5010710;28;20594;-72
2023/03/24 11:55:47;;;;;;;2.73;1.40;;;14.00;1.00;;;;;;5012562;28;20425;-72
2023/03/24 11:58:23;;;;;;;2.40;1.47;;;14.20;1.00;;;;;;5007088;28;20503;-73
2023/03/24 12:01:12;;;;;;;3.40;1.80;;;14.40;1.00;;;;;;5011779;28;20880;-74
2023/03/24 12:03:59;;;;;;;2.60;1.70;;;14.50;1.00;;;;;;5011235;28;20441;-72
2023/03/24 12:06:57;;;;;;;2.30;1.63;;;14.70;1.00;;;;;;5011346;28;20492;-73
2023/03/24 12:09:38;;;;;;;3.30;1.50;;;14.70;1.00;;;;;;5011484;28;20555;-73
2023/03/24 12:12:31;;;;;;;2.07;1.73;;;14.40;1.00;;;;;;5020746;28;20465;-72
2023/03/24 12:15:11;;;;;;;3.23;2.00;;;14.20;1.00;;;;;;5012752;28;20440;-72
2023/03/24 12:17:54;;;;;;;2.20;1.93;;;14.10;1.00;;;;;;5016978;28;20733;-73
2023/03/24 12:20:43;;;;;;;5.70;2.10;;;14.10;1.00;;;;;;5009844;28;20804;-72
2023/03/24 12:23:19;;;;;;;3.83;2.47;;;14.10;1.00;;;;;;5005633;28;20437;-73
2023/03/24 12:26:06;;;;;;;3.53;1.83;;;13.00;1.00;;;;;;5015173;28;20791;-72
2023/03/24 12:28:35;;;;;;;3.27;1.80;;;14.10;1.00;;;;;;5012686;28;20887;-73
2023/03/24 12:31:14;;;;;;;3.60;1.90;;;14.10;1.00;;;;;;5026111;28;20433;-72
2023/03/24 12:33:39;;;;;;;3.23;2.00;;;14.10;1.00;;;;;;5007822;28;20969;-73
2023/03/24 12:36:17;;;;;;;1.40;1.30;;;14.20;1.00;;;;;;5009682;28;20441;-73
2023/03/24 12:39:06;;;;;;;3.23;1.70;;;14.10;1.00;;;;;;5012559;28;20233;-73
2023/03/24 12:41:44;;;;;;;2.57;1.60;;;14.40;1.00;;;;;;5005607;28;20525;-72
2023/03/24 12:44:38;;;;;;;2.50;1.77;;;14.70;1.00;;;;;;5016485;28;20437;-72
2023/03/24 12:47:23;;;;;;;2.53;1.60;;;15.10;1.00;;;;;;5013850;28;20445;-72
2023/03/24 12:50:36;;;;;;;3.77;2.10;;;15.30;1.00;;;;;;5008849;28;20484;-73
2023/03/24 12:53:21;;;;;;;4.10;1.70;;;15.80;1.00;;;;;;4975396;28;20478;-72
2023/03/24 12:56:15;;;;;;;2.00;1.30;;;16.30;1.00;;;;;;5012007;28;20795;-72
2023/03/24 12:58:40;;;;;;;5.60;1.60;;;16.50;1.00;;;;;;5024801;28;20557;-72
2023/03/24 13:01:18;;;;;;;2.50;1.60;;;16.20;1.00;;;;;;5010410;28;20524;-74
2023/03/24 13:03:49;;;;;;;4.63;1.80;;;16.30;1.00;;;;;;5007066;28;20190;-73
2023/03/24 13:06:48;;;;;;;2.50;1.40;;;16.70;1.00;;;;;;5002328;28;20849;-73
2023/03/24 13:09:52;;;;;;;3.90;1.70;;;17.00;1.00;;;;;;5062971;23;20487;-74
2023/03/24 13:12:30;;;;;;;2.93;1.77;;;17.10;1.00;;;;;;5018040;28;20472;-75
2023/03/24 13:15:08;;;;;;;4.93;1.70;;;17.40;1.00;;;;;;5028948;28;20551;-75
2023/03/24 13:17:56;;;;;;;2.87;1.70;;;17.80;1.00;;;;;;5032263;28;20973;-75